createdAt,value
2023-11-01T00:02:12.667Z,91148.63
2023-11-01T00:04:39.515Z,91155.47
2023-11-01T00:07:06.259Z,91153.63
2023-11-01T00:09:32.903Z,91149.88
2023-11-01T00:12:00.514Z,91140.41
2023-11-01T00:14:27.752Z,91135.47
2023-11-01T00:16:54.562Z,91132.13
2023-11-01T00:19:21.912Z,91131.38
2023-11-01T00:21:48.593Z,91131.06
2023-11-01T00:24:15.988Z,91130.75
2023-11-01T00:26:42.792Z,91126.47
2023-11-01T00:29:09.513Z,91114.78
2023-11-01T00:31:36.280Z,91116.72
2023-11-01T00:34:03.407Z,91120.59
2023-11-01T00:36:30.121Z,91134.53
2023-11-01T00:38:56.765Z,91130.75
2023-11-01T00:41:23.490Z,91126.34
2023-11-01T00:43:50.452Z,91123.97
2023-11-01T00:46:17.161Z,91131.84
2023-11-01T00:48:44.446Z,91122.78
2023-11-01T00:51:11.112Z,91118.75
2023-11-01T00:53:37.830Z,91118.00
2023-11-01T00:56:04.988Z,91118.00
2023-11-01T00:58:31.618Z,91116.13
2023-11-01T01:00:58.361Z,91125.66
2023-11-01T01:03:25.269Z,91129.03
2023-11-01T01:05:51.935Z,91136.00
2023-11-01T01:08:19.130Z,91136.97
2023-11-01T01:10:45.915Z,91131.84
2023-11-01T01:13:12.591Z,91124.25
2023-11-01T01:15:39.273Z,91118.28
2023-11-01T01:18:06.162Z,91112.78
2023-11-01T01:20:33.093Z,91098.72
2023-11-01T01:22:59.804Z,91092.13
2023-11-01T01:25:26.517Z,91105.03
2023-11-01T01:27:53.253Z,91084.56
2023-11-01T01:30:20.167Z,91097.22
2023-11-01T01:32:46.899Z,91093.75
2023-11-01T01:35:14.398Z,91091.53
2023-11-01T01:37:41.326Z,91087.31
2023-11-01T01:40:08.703Z,91074.09
2023-11-01T01:42:35.379Z,91075.59
2023-11-01T01:45:02.889Z,91073.75
2023-11-01T01:47:29.792Z,91079.81
2023-11-01T01:49:56.832Z,91097.63
2023-11-01T01:52:23.614Z,91092.44
2023-11-01T01:54:51.029Z,91093.34
2023-11-01T01:57:25.500Z,91105.31
2023-11-01T01:59:56.483Z,91090.25
2023-11-01T02:02:23.213Z,91087.13
2023-11-01T02:04:50.200Z,91096.09
2023-11-01T02:07:17.175Z,91090.97
2023-11-01T02:09:44.609Z,91079.25
2023-11-01T02:12:11.327Z,91073.78
2023-11-01T02:14:38.160Z,91069.88
2023-11-01T02:17:07.737Z,91078.63
2023-11-01T02:19:34.996Z,91070.25
2023-11-01T02:22:01.862Z,91068.72
2023-11-01T02:24:29.515Z,91059.78
2023-11-01T02:26:56.453Z,91068.91
2023-11-01T02:29:23.801Z,91066.47
2023-11-01T02:31:51.748Z,91064.19
2023-11-01T02:34:18.700Z,91067.88
2023-11-01T02:36:45.424Z,91068.38
2023-11-01T02:39:12.096Z,91068.91
2023-11-01T02:41:40.463Z,91071.47
2023-11-01T02:44:09.983Z,91076.81
2023-11-01T02:46:37.421Z,91079.84
2023-11-01T02:49:05.260Z,91073.38
2023-11-01T02:51:32.454Z,91086.13
2023-11-01T02:53:59.300Z,91096.75
2023-11-01T02:56:26.085Z,91104.25
2023-11-01T02:58:52.736Z,91096.47
2023-11-01T03:01:22.723Z,91089.47
2023-11-01T03:03:50.751Z,91089.41
2023-11-01T03:06:17.833Z,91100.25
2023-11-01T03:08:46.415Z,91101.31
2023-11-01T03:11:13.542Z,91096.84
2023-11-01T03:13:40.279Z,91092.31
2023-11-01T03:16:07.577Z,91098.34
2023-11-01T03:18:34.965Z,91096.91
2023-11-01T03:21:01.762Z,91090.94
2023-11-01T03:23:28.502Z,91098.00
2023-11-01T03:25:55.190Z,91099.16
2023-11-01T03:28:22.710Z,91095.88
2023-11-01T03:30:49.472Z,91084.28
2023-11-01T03:33:16.185Z,91084.97
2023-11-01T03:35:42.965Z,91091.25
2023-11-01T03:38:09.821Z,91087.88
2023-11-01T03:40:36.541Z,91086.56
2023-11-01T03:43:05.681Z,91077.06
2023-11-01T03:45:32.431Z,91079.66
2023-11-01T03:47:59.306Z,91084.91
2023-11-01T03:50:26.181Z,91086.47
2023-11-01T03:52:52.856Z,91095.22
2023-11-01T03:55:19.604Z,91100.41
2023-11-01T03:57:46.334Z,91095.50
2023-11-01T04:00:22.526Z,91091.38
2023-11-01T04:02:53.765Z,91084.63
2023-11-01T04:05:21.565Z,91098.16
2023-11-01T04:07:48.526Z,91099.59
2023-11-01T04:10:15.402Z,91109.44
2023-11-01T04:12:42.295Z,91102.00
2023-11-01T04:15:11.203Z,91102.06
2023-11-01T04:17:39.184Z,91105.06
2023-11-01T04:20:09.181Z,91104.63
2023-11-01T04:22:38.152Z,91107.25
2023-11-01T04:25:06.690Z,91110.66
2023-11-01T04:27:40.943Z,91112.56
2023-11-01T04:30:09.669Z,91106.22
2023-11-01T04:32:37.457Z,91106.63
2023-11-01T04:35:05.247Z,91103.59
2023-11-01T04:37:32.135Z,91110.28
2023-11-01T04:39:58.783Z,91115.16
2023-11-01T04:42:25.645Z,91113.69
2023-11-01T04:44:52.671Z,91114.47
2023-11-01T04:47:19.543Z,91113.31
2023-11-01T04:49:47.130Z,91125.34
2023-11-01T04:52:13.811Z,91118.97
2023-11-01T04:54:40.793Z,91127.59
2023-11-01T04:57:07.475Z,91123.44
2023-11-01T04:59:34.591Z,91124.94
2023-11-01T05:02:01.332Z,91126.06
2023-11-01T05:04:28.049Z,91136.66
2023-11-01T05:06:54.884Z,91133.31
2023-11-01T05:09:21.570Z,91144.94
2023-11-01T05:11:49.456Z,91142.69
2023-11-01T05:14:16.543Z,91156.19
2023-11-01T05:16:43.289Z,91155.44
2023-11-01T05:19:10.226Z,91164.47
2023-11-01T05:21:38.057Z,91163.72
2023-11-01T05:24:05.303Z,91164.47
2023-11-01T05:26:35.575Z,91173.84
2023-11-01T05:29:03.203Z,91172.00
2023-11-01T05:31:29.934Z,91193.78
2023-11-01T05:33:57.018Z,91174.97
2023-11-01T05:36:23.776Z,91197.84
2023-11-01T05:38:50.501Z,91203.13
2023-11-01T05:41:17.299Z,91204.25
2023-11-01T05:43:45.208Z,91203.53
2023-11-01T05:46:12.012Z,91210.28
2023-11-01T05:48:39.083Z,91209.94
2023-11-01T05:51:06.758Z,91209.56
2023-11-01T05:53:33.783Z,91211.41
2023-11-01T05:56:08.310Z,91215.53
2023-11-01T05:58:38.034Z,91215.19
2023-11-01T06:01:05.142Z,91220.00
2023-11-01T06:03:32.465Z,91214.75
2023-11-01T06:05:59.879Z,91218.16
2023-11-01T06:08:26.894Z,91215.53
2023-11-01T06:10:55.402Z,91224.19
2023-11-01T06:13:22.545Z,91219.84
2023-11-01T06:15:53.025Z,91226.56
2023-11-01T06:18:20.563Z,91226.81
2023-11-01T06:20:47.371Z,91227.75
2023-11-01T06:23:14.140Z,91241.69
2023-11-01T06:25:41.288Z,91234.31
2023-11-01T06:28:09.917Z,91234.56
2023-11-01T06:30:36.856Z,91224.63
2023-11-01T06:33:04.009Z,91239.63
2023-11-01T06:35:30.901Z,91240.28
2023-11-01T06:37:57.626Z,91239.34
2023-11-01T06:40:24.552Z,91239.00
2023-11-01T06:42:51.364Z,91242.72
2023-11-01T06:45:18.156Z,91237.09
2023-11-01T06:47:44.886Z,91234.44
2023-11-01T06:50:11.656Z,91238.41
2023-11-01T06:52:38.409Z,91230.69
2023-11-01T06:55:06.436Z,91229.19
2023-11-01T06:57:33.197Z,91227.59
2023-11-01T06:59:59.930Z,91224.09
2023-11-01T07:02:27.729Z,91238.66
2023-11-01T07:04:54.550Z,91234.25
2023-11-01T07:07:21.275Z,91235.56
2023-11-01T07:09:47.939Z,91242.19
2023-11-01T07:12:14.855Z,91245.00
2023-11-01T07:14:41.575Z,91237.16
2023-11-01T07:17:10.355Z,91233.91
2023-11-01T07:19:37.078Z,91231.94
2023-11-01T07:22:03.855Z,91234.88
2023-11-01T07:24:31.596Z,91230.09
2023-11-01T07:27:00.331Z,91230.22
2023-11-01T07:29:27.051Z,91227.31
2023-11-01T07:31:54.923Z,91230.50
2023-11-01T07:34:21.713Z,91230.63
2023-11-01T07:36:48.946Z,91218.50
2023-11-01T07:39:15.668Z,91221.34
2023-11-01T07:41:42.464Z,91226.78
2023-11-01T07:44:09.204Z,91228.47
2023-11-01T07:46:36.335Z,91232.28
2023-11-01T07:49:03.160Z,91223.94
2023-11-01T07:51:30.582Z,91234.06
2023-11-01T07:53:57.387Z,91227.19
2023-11-01T07:56:24.643Z,91232.22
2023-11-01T07:58:51.362Z,91236.72
2023-11-01T08:01:18.102Z,91225.91
2023-11-01T08:03:45.133Z,91235.22
2023-11-01T08:06:11.932Z,91229.03
2023-11-01T08:08:38.856Z,91229.38
2023-11-01T08:11:12.079Z,91236.53
2023-11-01T08:13:38.760Z,91237.28
2023-11-01T08:16:06.045Z,91233.16
2023-11-01T08:18:32.848Z,91240.06
2023-11-01T08:20:59.717Z,91237.16
2023-11-01T08:23:26.491Z,91233.28
2023-11-01T08:25:53.298Z,91239.00
2023-11-01T08:28:20.159Z,91234.94
2023-11-01T08:30:46.862Z,91232.16
2023-11-01T08:33:13.684Z,91235.13
2023-11-01T08:35:40.552Z,91241.72
2023-11-01T08:38:09.888Z,91244.97
2023-11-01T08:40:36.833Z,91239.59
2023-11-01T08:43:03.579Z,91243.06
2023-11-01T08:45:30.216Z,91243.94
2023-11-01T08:47:57.049Z,91245.88
2023-11-01T08:50:23.778Z,91242.94
2023-11-01T08:52:50.525Z,91251.16
2023-11-01T08:55:18.025Z,91241.69
2023-11-01T08:57:46.199Z,91245.75
2023-11-01T09:00:15.015Z,91239.56
2023-11-01T09:02:42.009Z,91241.25
2023-11-01T09:05:09.170Z,91236.53
2023-11-01T09:07:37.800Z,91239.00
2023-11-01T09:10:04.947Z,91241.63
2023-11-01T09:12:31.702Z,91241.16
2023-11-01T09:14:58.797Z,91239.91
2023-11-01T09:17:26.375Z,91236.38
2023-11-01T09:19:53.191Z,91223.59
2023-11-01T09:22:19.894Z,91234.75
2023-11-01T09:24:46.682Z,91235.78
2023-11-01T09:27:13.362Z,91233.50
2023-11-01T09:29:40.104Z,91229.19
2023-11-01T09:32:07.392Z,91221.81
2023-11-01T09:34:34.261Z,91220.34
2023-11-01T09:37:01.076Z,91213.88
2023-11-01T09:39:27.974Z,91219.09
2023-11-01T09:42:04.084Z,91209.88
2023-11-01T09:44:31.291Z,91212.59
2023-11-01T09:46:59.071Z,91212.53
2023-11-01T09:49:26.404Z,91199.38
2023-11-01T09:51:53.663Z,91200.84
2023-11-01T09:54:20.980Z,91199.97
2023-11-01T09:56:48.531Z,91189.38
2023-11-01T09:59:15.805Z,91185.19
2023-11-01T10:01:42.583Z,91200.69
2023-11-01T10:04:10.046Z,91185.44
2023-11-01T10:06:37.941Z,91182.59
2023-11-01T10:09:06.442Z,91186.63
2023-11-01T10:11:33.793Z,91186.06
2023-11-01T10:14:01.871Z,91175.38
2023-11-01T10:16:29.380Z,91172.88
2023-11-01T10:18:56.570Z,91179.50
2023-11-01T10:21:28.968Z,91178.41
2023-11-01T10:23:59.827Z,91178.28
2023-11-01T10:26:31.001Z,91168.19
2023-11-01T10:28:59.127Z,91166.53
2023-11-01T10:31:26.219Z,91170.88
2023-11-01T10:33:53.476Z,91167.28
2023-11-01T10:36:21.732Z,91165.28
2023-11-01T10:38:52.282Z,91165.41
2023-11-01T10:41:19.992Z,91168.66
2023-11-01T10:43:48.470Z,91168.66
2023-11-01T10:46:16.390Z,91164.50
2023-11-01T10:48:45.350Z,91170.00
2023-11-01T10:51:13.052Z,91159.78
2023-11-01T10:53:41.225Z,91157.34
2023-11-01T10:56:08.738Z,91154.13
2023-11-01T10:58:41.058Z,91163.84
2023-11-01T11:01:28.512Z,91166.69
2023-11-01T11:04:04.042Z,91159.31
2023-11-01T11:06:40.345Z,91163.53
2023-11-01T11:09:24.608Z,91156.38
2023-11-01T11:12:18.007Z,91155.25
2023-11-01T11:14:49.381Z,91154.72
2023-11-01T11:17:17.923Z,91150.88
2023-11-01T11:20:06.668Z,91150.78
2023-11-01T11:23:04.339Z,91144.59
2023-11-01T11:25:40.112Z,91146.56
2023-11-01T11:28:09.960Z,91150.66
2023-11-01T11:31:05.258Z,91139.97
2023-11-01T11:33:32.918Z,91143.88
2023-11-01T11:36:26.569Z,91147.84
2023-11-01T11:38:59.168Z,91142.19
2023-11-01T11:41:37.837Z,91140.28
2023-11-01T11:44:15.157Z,91136.41
2023-11-01T11:46:54.856Z,91147.59
2023-11-01T11:49:38.808Z,91138.72
2023-11-01T11:52:12.895Z,91134.63
2023-11-01T11:54:39.739Z,91138.50
2023-11-01T11:57:09.192Z,91149.72
2023-11-01T11:59:36.975Z,91143.84
2023-11-01T12:02:08.350Z,91147.06
2023-11-01T12:04:37.863Z,91133.31
2023-11-01T12:07:07.598Z,91128.03
2023-11-01T12:09:34.623Z,91139.75
2023-11-01T12:12:11.175Z,91139.19
2023-11-01T12:14:39.061Z,91130.38
2023-11-01T12:17:06.484Z,91138.94
2023-11-01T12:19:36.587Z,91145.38
2023-11-01T12:22:03.349Z,91150.16
2023-11-01T12:24:39.294Z,91155.72
2023-11-01T12:27:11.061Z,91151.25
2023-11-01T12:29:51.617Z,91152.03
2023-11-01T12:32:20.625Z,91159.47
2023-11-01T12:34:47.386Z,91163.81
2023-11-01T12:37:20.048Z,91168.44
2023-11-01T12:40:06.556Z,91168.63
2023-11-01T12:42:35.372Z,91166.09
2023-11-01T12:45:02.649Z,91167.03
2023-11-01T12:47:58.544Z,91165.22
2023-11-01T12:50:27.427Z,91170.34
2023-11-01T12:52:55.341Z,91163.94
2023-11-01T12:55:22.390Z,91165.22
2023-11-01T12:57:56.870Z,91166.19
2023-11-01T13:00:24.746Z,91166.31
2023-11-01T13:02:52.539Z,91166.53
2023-11-01T13:05:19.821Z,91169.03
2023-11-01T13:07:47.104Z,91169.16
2023-11-01T13:10:17.511Z,91169.03
2023-11-01T13:12:47.404Z,91170.31
2023-11-01T13:15:15.880Z,91173.41
2023-11-01T13:17:42.844Z,91163.50
2023-11-01T13:20:10.002Z,91160.94
2023-11-01T13:22:36.963Z,91166.03
2023-11-01T13:25:03.864Z,91163.03
2023-11-01T13:27:30.870Z,91169.88
2023-11-01T13:29:57.760Z,91166.81
2023-11-01T13:32:24.470Z,91170.34
2023-11-01T13:34:51.176Z,91166.31
2023-11-01T13:37:17.957Z,91176.81
2023-11-01T13:39:44.802Z,91171.69
2023-11-01T13:42:15.696Z,91170.59
2023-11-01T13:44:44.546Z,91176.50
2023-11-01T13:47:12.124Z,91173.53
2023-11-01T13:49:41.208Z,91182.16
2023-11-01T13:52:08.573Z,91163.31
2023-11-01T13:54:35.464Z,91172.66
2023-11-01T13:57:04.500Z,91166.19
2023-11-01T13:59:31.651Z,91165.44
2023-11-01T14:01:58.619Z,91170.13
2023-11-01T14:04:26.725Z,91172.97
2023-11-01T14:06:53.587Z,91172.88
2023-11-01T14:09:20.525Z,91175.59
2023-11-01T14:11:52.695Z,91184.00
2023-11-01T14:14:22.569Z,91181.22
2023-11-01T14:16:49.453Z,91186.63
2023-11-01T14:19:16.245Z,91190.25
2023-11-01T14:21:42.960Z,91189.63
2023-11-01T14:24:11.076Z,91191.72
2023-11-01T14:26:38.982Z,91187.00
2023-11-01T14:29:05.991Z,91193.19
2023-11-01T14:31:32.717Z,91195.59
2023-11-01T14:33:59.507Z,91188.66
2023-11-01T14:36:26.326Z,91194.66
2023-11-01T14:38:53.266Z,91185.94
2023-11-01T14:41:19.980Z,91191.63
2023-11-01T14:43:46.929Z,91194.28
2023-11-01T14:46:14.743Z,91188.53
2023-11-01T14:48:44.774Z,91189.19
2023-11-01T14:51:11.685Z,91189.16
2023-11-01T14:53:38.634Z,91199.50
2023-11-01T14:56:16.188Z,91190.69
2023-11-01T14:58:45.645Z,91200.97
2023-11-01T15:01:12.503Z,91202.41
2023-11-01T15:03:43.382Z,91197.03
2023-11-01T15:06:10.844Z,91197.91
2023-11-01T15:08:42.552Z,91199.25
2023-11-01T15:11:11.484Z,91205.22
2023-11-01T15:13:38.418Z,91202.47
2023-11-01T15:16:05.613Z,91203.56
2023-11-01T15:18:32.849Z,91205.88
2023-11-01T15:20:59.746Z,91208.88
2023-11-01T15:23:26.470Z,91202.16
2023-11-01T15:25:53.250Z,91211.88
2023-11-01T15:28:19.937Z,91211.59
2023-11-01T15:30:46.622Z,91211.53
2023-11-01T15:33:13.461Z,91206.88
2023-11-01T15:35:40.723Z,91205.47
2023-11-01T15:38:07.483Z,91199.31
2023-11-01T15:40:34.969Z,91209.53
2023-11-01T15:43:01.704Z,91214.03
2023-11-01T15:45:28.482Z,91213.69
2023-11-01T15:47:56.197Z,91212.59
2023-11-01T15:50:23.092Z,91214.91
2023-11-01T15:52:49.811Z,91222.88
2023-11-01T15:55:16.735Z,91227.69
2023-11-01T15:57:43.426Z,91225.78
2023-11-01T16:00:10.975Z,91230.75
2023-11-01T16:02:38.038Z,91234.84
2023-11-01T16:05:05.029Z,91231.88
2023-11-01T16:07:32.594Z,91235.06
2023-11-01T16:09:59.448Z,91231.63
2023-11-01T16:12:26.731Z,91237.63
2023-11-01T16:14:53.405Z,91233.78
2023-11-01T16:17:20.112Z,91241.41
2023-11-01T16:19:46.815Z,91244.06
2023-11-01T16:22:15.473Z,91242.22
2023-11-01T16:24:42.518Z,91250.91
2023-11-01T16:27:09.281Z,91242.94
2023-11-01T16:29:36.096Z,91247.91
2023-11-01T16:32:03.328Z,91241.34
2023-11-01T16:34:30.021Z,91248.59
2023-11-01T16:36:56.726Z,91253.47
2023-11-01T16:39:23.708Z,91256.72
2023-11-01T16:41:50.507Z,91256.53
2023-11-01T16:44:17.239Z,91252.78
2023-11-01T16:46:44.057Z,91253.59
2023-11-01T16:49:10.917Z,91260.94
2023-11-01T16:51:37.627Z,91262.00
2023-11-01T16:54:04.615Z,91268.38
2023-11-01T16:56:31.323Z,91263.78
2023-11-01T16:58:57.989Z,91267.59
2023-11-01T17:01:24.901Z,91272.06
2023-11-01T17:03:54.349Z,91269.44
2023-11-01T17:06:21.636Z,91264.56
2023-11-01T17:08:49.079Z,91262.66
2023-11-01T17:11:16.316Z,91251.31
2023-11-01T17:13:43.628Z,91254.97
2023-11-01T17:16:11.443Z,91256.81
2023-11-01T17:18:42.044Z,91256.56
2023-11-01T17:21:09.306Z,91253.75
2023-11-01T17:23:36.078Z,91262.84
2023-11-01T17:26:26.604Z,91264.75
2023-11-01T17:28:54.668Z,91257.91
2023-11-01T17:31:42.834Z,91261.81
2023-11-01T17:34:11.462Z,91265.91
2023-11-01T17:36:38.768Z,91255.03
2023-11-01T17:39:07.463Z,91251.16
2023-11-01T17:41:53.854Z,91255.03
2023-11-01T17:44:25.859Z,91260.56
2023-11-01T17:46:57.845Z,91253.19
2023-11-01T17:49:49.880Z,91262.06
2023-11-01T17:52:24.110Z,91265.84
2023-11-01T17:54:53.027Z,91267.09
2023-11-01T17:57:20.417Z,91264.88
2023-11-01T17:59:47.639Z,91258.41
2023-11-01T18:02:40.545Z,91264.22
2023-11-01T18:05:34.969Z,91272.59
2023-11-01T18:08:06.977Z,91257.44
2023-11-01T18:10:40.366Z,91265.06
2023-11-01T18:13:27.816Z,91269.44
2023-11-01T18:16:25.487Z,91270.69
2023-11-01T18:18:56.505Z,91279.59
2023-11-01T18:21:29.492Z,91272.47
2023-11-01T18:24:00.586Z,91280.72
2023-11-01T18:26:34.339Z,91274.31
2023-11-01T18:29:04.008Z,91266.47
2023-11-01T18:31:37.997Z,91273.69
2023-11-01T18:34:07.088Z,91281.25
2023-11-01T18:36:41.472Z,91269.38
2023-11-01T18:39:12.351Z,91284.16
2023-11-01T18:41:41.241Z,91275.38
2023-11-01T18:44:29.394Z,91279.25
2023-11-01T18:46:58.045Z,91272.47
2023-11-01T18:50:05.417Z,91279.94
2023-11-01T18:52:32.747Z,91273.75
2023-11-01T18:55:00.454Z,91279.00
2023-11-01T18:57:31.929Z,91277.31
2023-11-01T18:59:58.925Z,91274.69
2023-11-01T19:02:34.858Z,91280.34
2023-11-01T19:05:10.096Z,91278.47
2023-11-01T19:07:47.897Z,91278.84
2023-11-01T19:10:23.182Z,91278.13
2023-11-01T19:12:53.965Z,91281.22
2023-11-01T19:15:36.348Z,91274.78
2023-11-01T19:18:15.905Z,91274.38
2023-11-01T19:20:45.216Z,91272.41
2023-11-01T19:23:13.445Z,91275.53
2023-11-01T19:25:40.242Z,91278.16
2023-11-01T19:28:06.978Z,91277.44
2023-11-01T19:30:33.625Z,91273.66
2023-11-01T19:33:01.032Z,91272.97
2023-11-01T19:35:27.907Z,91254.28
2023-11-01T19:37:54.639Z,91264.41
2023-11-01T19:40:25.032Z,91259.56
2023-11-01T19:42:52.659Z,91257.69
2023-11-01T19:45:19.839Z,91263.31
2023-11-01T19:47:47.302Z,91257.28
2023-11-01T19:50:26.520Z,91252.41
2023-11-01T19:52:54.297Z,91255.00
2023-11-01T19:55:21.050Z,91249.75
2023-11-01T19:57:48.767Z,91246.31
2023-11-01T20:00:16.198Z,91238.44
2023-11-01T20:02:43.555Z,91235.53
2023-11-01T20:05:10.606Z,91237.97
2023-11-01T20:07:37.698Z,91236.28
2023-11-01T20:10:11.476Z,91232.19
2023-11-01T20:12:39.940Z,91238.81
2023-11-01T20:15:13.690Z,91237.97
2023-11-01T20:17:40.821Z,91234.88
2023-11-01T20:20:09.093Z,91229.56
2023-11-01T20:22:45.124Z,91230.97
2023-11-01T20:25:13.496Z,91223.50
2023-11-01T20:27:41.777Z,91231.34
2023-11-01T20:30:09.209Z,91232.50
2023-11-01T20:32:36.802Z,91227.22
2023-11-01T20:35:03.757Z,91228.78
2023-11-01T20:37:30.808Z,91220.81
2023-11-01T20:39:57.633Z,91223.28
2023-11-01T20:42:24.446Z,91221.06
2023-11-01T20:44:51.843Z,91219.38
2023-11-01T20:47:19.978Z,91203.41
2023-11-01T20:49:48.003Z,91211.59
2023-11-01T20:52:15.358Z,91206.56
2023-11-01T20:54:55.279Z,91218.88
2023-11-01T20:57:24.360Z,91215.94
2023-11-01T20:59:51.256Z,91203.75
2023-11-01T21:02:18.067Z,91204.72
2023-11-01T21:04:44.989Z,91203.75
2023-11-01T21:07:11.870Z,91200.94
2023-11-01T21:09:38.779Z,91207.19
2023-11-01T21:12:06.056Z,91199.13
2023-11-01T21:14:37.760Z,91201.63
2023-11-01T21:17:07.464Z,91201.31
2023-11-01T21:19:34.473Z,91202.84
2023-11-01T21:22:01.432Z,91200.00
2023-11-01T21:24:28.394Z,91199.81
2023-11-01T21:26:55.978Z,91203.47
2023-11-01T21:29:22.888Z,91200.31
2023-11-01T21:31:49.880Z,91196.50
2023-11-01T21:34:17.561Z,91202.94
2023-11-01T21:36:45.152Z,91195.16
2023-11-01T21:39:12.360Z,91192.69
2023-11-01T21:41:42.777Z,91186.97
2023-11-01T21:44:09.625Z,91188.06
2023-11-01T21:46:36.734Z,91185.94
2023-11-01T21:49:19.328Z,91184.41
2023-11-01T21:51:46.157Z,91172.78
2023-11-01T21:54:28.376Z,91173.66
2023-11-01T21:56:55.283Z,91166.06
2023-11-01T21:59:22.689Z,91173.22
2023-11-01T22:01:50.644Z,91169.06
2023-11-01T22:04:22.223Z,91163.72
2023-11-01T22:06:50.741Z,91167.09
2023-11-01T22:09:19.065Z,91171.28
2023-11-01T22:11:51.992Z,91160.81
2023-11-01T22:14:32.624Z,91159.91
2023-11-01T22:17:04.046Z,91149.41
2023-11-01T22:19:35.723Z,91160.28
2023-11-01T22:22:12.736Z,91161.28
2023-11-01T22:24:43.076Z,91163.97
2023-11-01T22:27:12.172Z,91159.59
2023-11-01T22:29:44.731Z,91150.84
2023-11-01T22:32:23.931Z,91157.25
2023-11-01T22:34:53.692Z,91159.44
2023-11-01T22:37:23.368Z,91159.81
2023-11-01T22:39:53.878Z,91153.38
2023-11-01T22:42:31.881Z,91151.06
2023-11-01T22:45:02.837Z,91150.28
2023-11-01T22:47:31.121Z,91146.16
2023-11-01T22:49:58.970Z,91137.66
2023-11-01T22:52:25.733Z,91149.03
2023-11-01T22:54:52.416Z,91143.00
2023-11-01T22:57:19.189Z,91146.06
2023-11-01T22:59:45.941Z,91145.59
2023-11-01T23:02:14.854Z,91140.66
2023-11-01T23:04:43.130Z,91138.44
2023-11-01T23:07:12.903Z,91133.16
2023-11-01T23:09:39.653Z,91132.09
2023-11-01T23:12:06.988Z,91126.53
2023-11-01T23:14:34.347Z,91130.19
2023-11-01T23:17:01.301Z,91114.72
2023-11-01T23:19:27.999Z,91121.19
2023-11-01T23:21:54.768Z,91125.78
2023-11-01T23:24:24.410Z,91117.47
2023-11-01T23:26:55.309Z,91113.63
2023-11-01T23:29:29.707Z,91103.81
2023-11-01T23:31:57.469Z,91098.16
2023-11-01T23:34:43.600Z,91101.56
2023-11-01T23:37:19.645Z,91107.50
2023-11-01T23:39:46.767Z,91110.25
2023-11-01T23:42:15.240Z,91100.44
2023-11-01T23:44:42.494Z,91102.59
2023-11-01T23:47:10.702Z,91105.63
2023-11-01T23:52:31.503Z,91097.25
2023-11-01T23:54:59.197Z,91104.75
2023-11-01T23:57:29.573Z,91100.63
2023-11-01T23:59:57.404Z,91099.53
